createdAt,value
2018-10-19T00:00:30.563Z,81.70
2018-10-19T00:03:00.782Z,81.60
2018-10-19T00:05:30.682Z,81.70
2018-10-19T00:08:00.663Z,81.80
2018-10-19T00:10:30.639Z,81.80
2018-10-19T00:13:00.661Z,81.80
2018-10-19T00:15:30.705Z,81.70
2018-10-19T00:18:00.734Z,81.80
2018-10-19T00:20:30.716Z,81.80
2018-10-19T00:23:00.675Z,81.60
2018-10-19T00:25:30.644Z,81.50
2018-10-19T00:28:00.777Z,81.50
2018-10-19T00:30:30.726Z,81.70
2018-10-19T00:33:00.809Z,81.90
2018-10-19T00:35:30.800Z,81.50
2018-10-19T00:38:00.657Z,81.40
2018-10-19T00:40:30.749Z,81.40
2018-10-19T00:43:01.093Z,81.40
2018-10-19T00:45:35.838Z,81.60
2018-10-19T00:48:13.286Z,81.50
2018-10-19T00:50:42.961Z,81.40
2018-10-19T00:53:12.811Z,81.40
2018-10-19T00:55:42.281Z,81.40
2018-10-19T00:58:11.653Z,81.40
2018-10-19T01:00:41.946Z,81.50
2018-10-19T01:03:11.493Z,81.60
2018-10-19T01:05:41.335Z,82.00
2018-10-19T01:08:11.034Z,81.80
2018-10-19T01:10:40.368Z,81.90
2018-10-19T01:13:09.620Z,82.00
2018-10-19T01:15:38.965Z,81.90
2018-10-19T01:18:08.277Z,81.90
2018-10-19T01:20:37.582Z,81.90
2018-10-19T01:23:06.981Z,81.80
2018-10-19T01:25:40.604Z,81.50
2018-10-19T01:28:10.590Z,81.50
2018-10-19T01:30:40.054Z,81.70
2018-10-19T01:33:09.419Z,81.70
2018-10-19T01:35:38.693Z,81.80
2018-10-19T01:38:08.028Z,81.50
2018-10-19T01:43:34.780Z,81.40
2018-10-19T01:46:04.043Z,81.70
2018-10-19T01:48:33.317Z,81.80
2018-10-19T01:51:02.667Z,81.90
2018-10-19T01:53:31.885Z,81.90
2018-10-19T01:56:01.212Z,81.80
2018-10-19T01:58:30.904Z,81.80
2018-10-19T02:01:00.891Z,81.90
2018-10-19T02:03:30.837Z,82.00
2018-10-19T02:06:00.965Z,81.90
2018-10-19T02:08:30.933Z,81.50
2018-10-19T02:11:01.071Z,81.40
2018-10-19T02:13:30.992Z,81.50
2018-10-19T02:16:00.870Z,81.60
2018-10-19T02:18:30.999Z,81.60
2018-10-19T02:21:01.149Z,81.80
2018-10-19T02:23:30.985Z,81.70
2018-10-19T02:26:01.023Z,81.50
2018-10-19T02:28:31.033Z,81.50
2018-10-19T02:31:01.055Z,81.60
2018-10-19T02:33:31.007Z,81.60
2018-10-19T02:36:01.090Z,81.70
2018-10-19T02:38:31.075Z,81.80
2018-10-19T02:41:01.227Z,81.70
2018-10-19T02:43:31.045Z,81.60
2018-10-19T02:46:01.120Z,81.50
2018-10-19T02:48:31.036Z,81.50
2018-10-19T02:51:01.032Z,81.50
2018-10-19T02:53:31.065Z,81.40
2018-10-19T02:56:01.107Z,81.60
2018-10-19T02:58:35.228Z,81.70
2018-10-19T03:01:04.561Z,81.60
2018-10-19T03:03:33.941Z,81.60
2018-10-19T03:06:03.332Z,81.60
2018-10-19T03:08:32.653Z,81.40
2018-10-19T03:11:02.018Z,81.50
2018-10-19T03:13:31.237Z,81.50
2018-10-19T03:16:01.153Z,81.70
2018-10-19T03:18:31.159Z,81.80
2018-10-19T03:21:01.151Z,82.00
2018-10-19T03:23:31.065Z,82.00
2018-10-19T03:26:01.301Z,82.00
2018-10-19T03:28:31.176Z,82.60
2018-10-19T03:31:01.217Z,82.00
2018-10-19T03:33:31.399Z,81.90
2018-10-19T03:36:01.061Z,81.70
2018-10-19T03:38:31.086Z,81.60
2018-10-19T03:41:01.165Z,81.60
2018-10-19T03:43:31.137Z,81.60
2018-10-19T03:46:01.149Z,81.60
2018-10-19T03:48:31.118Z,81.70
2018-10-19T03:51:01.190Z,81.70
2018-10-19T03:53:31.163Z,81.80
2018-10-19T03:56:01.174Z,81.90
2018-10-19T03:58:31.181Z,82.00
2018-10-19T04:01:01.165Z,81.90
2018-10-19T04:03:31.277Z,82.00
2018-10-19T04:06:01.262Z,82.10
2018-10-19T04:08:31.171Z,82.20
2018-10-19T04:11:01.177Z,82.10
2018-10-19T04:13:31.172Z,82.00
2018-10-19T04:16:01.141Z,82.20
2018-10-19T04:18:31.175Z,82.30
2018-10-19T04:21:01.257Z,82.50
2018-10-19T04:23:31.184Z,82.70
2018-10-19T04:26:01.182Z,82.50
2018-10-19T04:28:31.256Z,82.40
2018-10-19T04:31:01.223Z,82.40
2018-10-19T04:33:31.244Z,82.50
2018-10-19T04:36:01.302Z,82.40
2018-10-19T04:38:31.355Z,82.40
2018-10-19T04:41:01.242Z,82.60
2018-10-19T04:43:31.238Z,82.60
2018-10-19T04:46:01.317Z,82.30
2018-10-19T04:48:31.296Z,82.50
2018-10-19T04:51:01.284Z,82.60
2018-10-19T04:53:31.311Z,82.60
2018-10-19T04:56:01.267Z,82.60
2018-10-19T04:58:31.221Z,82.60
2018-10-19T05:01:01.282Z,82.70
2018-10-19T05:03:31.277Z,82.80
2018-10-19T05:06:01.467Z,82.80
2018-10-19T05:08:31.358Z,82.80
2018-10-19T05:11:01.309Z,82.80
2018-10-19T05:13:31.274Z,82.90
2018-10-19T05:16:01.289Z,82.60
2018-10-19T05:18:31.383Z,82.60
2018-10-19T05:21:01.412Z,82.70
2018-10-19T05:23:31.409Z,82.80
2018-10-19T05:26:01.376Z,82.80
2018-10-19T05:28:31.367Z,82.80
2018-10-19T05:31:01.367Z,82.90
2018-10-19T05:33:31.333Z,82.90
2018-10-19T05:36:01.789Z,82.90
2018-10-19T05:38:31.377Z,83.10
2018-10-19T05:41:01.466Z,83.00
2018-10-19T05:43:31.318Z,82.80
2018-10-19T05:46:01.394Z,82.70
2018-10-19T05:48:31.370Z,82.70
2018-10-19T05:51:01.421Z,82.80
2018-10-19T05:53:31.412Z,82.90
2018-10-19T05:56:01.476Z,83.10
2018-10-19T05:58:31.424Z,82.70
2018-10-19T06:01:01.389Z,82.70
2018-10-19T06:03:31.540Z,82.70
2018-10-19T06:06:01.542Z,82.80
2018-10-19T06:08:31.520Z,83.10
2018-10-19T06:11:01.467Z,83.10
2018-10-19T06:13:31.574Z,83.30
2018-10-19T06:16:01.496Z,83.40
2018-10-19T06:18:31.633Z,83.60
2018-10-19T06:21:01.638Z,83.80
2018-10-19T06:23:31.714Z,84.30
2018-10-19T06:26:01.726Z,84.40
2018-10-19T06:28:31.855Z,84.50
2018-10-19T06:31:01.541Z,84.60
2018-10-19T06:33:31.594Z,84.60
2018-10-19T06:36:01.745Z,84.70
2018-10-19T06:38:31.495Z,84.90
2018-10-19T06:41:01.544Z,84.70
2018-10-19T06:43:31.525Z,84.70
2018-10-19T06:46:01.547Z,84.50
2018-10-19T06:48:31.550Z,84.40
2018-10-19T06:51:01.692Z,84.70
2018-10-19T06:53:31.496Z,84.70
2018-10-19T06:56:01.678Z,84.60
2018-10-19T06:58:31.566Z,84.70
2018-10-19T07:01:01.627Z,84.70
2018-10-19T07:03:38.174Z,84.60
2018-10-19T07:06:07.593Z,84.70
2018-10-19T07:08:36.846Z,84.70
2018-10-19T07:11:06.524Z,85.00
2018-10-19T07:13:35.799Z,85.00
2018-10-19T07:16:05.288Z,85.00
2018-10-19T07:18:34.609Z,85.00
2018-10-19T07:21:04.357Z,85.00
2018-10-19T07:23:33.702Z,84.80
2018-10-19T07:26:03.139Z,84.70
2018-10-19T07:28:32.366Z,84.70
2018-10-19T07:31:01.622Z,84.90
2018-10-19T07:33:34.800Z,84.80
2018-10-19T07:36:10.227Z,84.70
2018-10-19T07:38:39.730Z,84.20
2018-10-19T07:41:09.115Z,83.60
2018-10-19T07:43:38.334Z,83.50
2018-10-19T07:46:07.614Z,83.10
2018-10-19T07:48:36.949Z,83.60
2018-10-19T07:51:06.520Z,83.80
2018-10-19T07:53:35.753Z,83.70
2018-10-19T07:56:06.121Z,83.60
2018-10-19T07:58:35.344Z,83.30
2018-10-19T08:01:04.666Z,83.10
2018-10-19T08:03:33.940Z,84.00
2018-10-19T08:06:03.318Z,82.80
2018-10-19T08:08:32.602Z,82.40
2018-10-19T08:11:01.934Z,82.50
2018-10-19T08:13:31.693Z,81.90
2018-10-19T08:16:01.675Z,81.70
2018-10-19T08:18:31.728Z,81.40
2018-10-19T08:21:01.688Z,82.00
2018-10-19T08:23:31.997Z,81.30
2018-10-19T08:26:01.932Z,81.10
2018-10-19T08:28:31.699Z,80.70
2018-10-19T08:31:01.708Z,80.30
2018-10-19T08:33:31.690Z,79.70
2018-10-19T08:36:01.743Z,79.50
2018-10-19T08:38:31.734Z,79.30
2018-10-19T08:41:01.766Z,78.90
2018-10-19T08:43:31.719Z,78.50
2018-10-19T08:46:07.051Z,77.80
2018-10-19T08:48:36.383Z,77.30
2018-10-19T08:51:05.710Z,77.40
2018-10-19T08:53:35.048Z,76.20
2018-10-19T08:56:04.434Z,76.50
2018-10-19T08:58:33.756Z,76.50
2018-10-19T09:01:03.056Z,76.80
2018-10-19T09:03:32.481Z,77.20
2018-10-19T09:06:02.037Z,77.40
2018-10-19T09:08:31.782Z,77.40
2018-10-19T09:11:01.880Z,77.80
2018-10-19T09:13:31.807Z,78.10
2018-10-19T09:16:05.096Z,76.70
2018-10-19T09:18:34.456Z,76.20
2018-10-19T09:21:03.845Z,76.30
2018-10-19T09:23:33.341Z,75.30
2018-10-19T09:26:02.647Z,74.90
2018-10-19T09:28:31.889Z,75.20
2018-10-19T09:31:01.837Z,74.10
2018-10-19T09:33:31.899Z,73.70
2018-10-19T09:36:01.863Z,74.50
2018-10-19T09:38:31.982Z,75.00
2018-10-19T09:41:01.883Z,73.60
2018-10-19T09:43:32.046Z,72.70
2018-10-19T09:46:01.746Z,73.20
2018-10-19T09:48:31.831Z,72.60
2018-10-19T09:51:01.981Z,72.00
2018-10-19T09:53:31.951Z,70.90
2018-10-19T09:56:01.840Z,71.00
2018-10-19T09:58:32.007Z,70.00
2018-10-19T10:01:01.860Z,71.10
2018-10-19T10:03:31.858Z,69.40
2018-10-19T10:06:02.351Z,70.20
2018-10-19T10:08:31.834Z,71.30
2018-10-19T10:11:01.901Z,70.80
2018-10-19T10:13:38.225Z,70.30
2018-10-19T10:16:07.608Z,70.00
2018-10-19T10:18:37.030Z,70.90
2018-10-19T10:21:07.200Z,70.60
2018-10-19T10:23:36.525Z,71.00
2018-10-19T10:26:05.835Z,72.70
2018-10-19T10:28:35.137Z,73.60
2018-10-19T10:31:04.460Z,74.60
2018-10-19T10:33:33.713Z,75.30
2018-10-19T10:36:03.250Z,75.30
2018-10-19T10:38:32.594Z,75.50
2018-10-19T10:41:02.345Z,76.00
2018-10-19T10:43:31.879Z,77.40
2018-10-19T10:46:02.090Z,76.50
2018-10-19T10:48:31.931Z,76.70
2018-10-19T10:51:01.924Z,76.60
2018-10-19T10:53:31.996Z,77.00
2018-10-19T10:56:02.097Z,77.80
2018-10-19T10:58:31.909Z,76.90
2018-10-19T11:01:02.185Z,76.00
2018-10-19T11:03:32.047Z,76.20
2018-10-19T11:06:01.941Z,75.90
2018-10-19T11:08:31.999Z,75.60
2018-10-19T11:11:10.272Z,74.00
2018-10-19T11:13:40.565Z,72.70
2018-10-19T11:16:10.831Z,69.40
2018-10-19T11:18:40.421Z,67.60
2018-10-19T11:21:09.885Z,67.20
2018-10-19T11:23:39.231Z,66.80
2018-10-19T11:26:08.509Z,65.30
2018-10-19T11:28:37.835Z,65.30
2018-10-19T11:31:07.197Z,64.40
2018-10-19T11:33:36.494Z,62.30
2018-10-19T11:36:05.875Z,64.30
2018-10-19T11:38:35.182Z,62.60
2018-10-19T11:41:04.461Z,64.00
2018-10-19T11:43:33.776Z,64.90
2018-10-19T11:46:03.095Z,64.10
2018-10-19T11:48:32.404Z,62.50
2018-10-19T11:51:02.133Z,61.60
2018-10-19T11:53:32.110Z,63.10
2018-10-19T11:56:02.177Z,63.00
2018-10-19T11:58:32.050Z,62.50
2018-10-19T12:01:02.222Z,65.20
2018-10-19T12:03:32.164Z,65.30
2018-10-19T12:06:02.158Z,65.40
2018-10-19T12:08:32.051Z,66.00
2018-10-19T12:11:02.136Z,65.80
2018-10-19T12:13:32.026Z,66.70
2018-10-19T12:16:02.444Z,67.20
2018-10-19T12:18:32.150Z,67.30
2018-10-19T12:21:02.245Z,67.70
2018-10-19T12:23:32.210Z,66.20
2018-10-19T12:26:02.275Z,66.50
2018-10-19T12:28:32.222Z,64.60
2018-10-19T12:31:02.189Z,62.40
2018-10-19T12:33:32.197Z,65.10
2018-10-19T12:36:02.755Z,63.70
2018-10-19T12:38:32.272Z,63.80
2018-10-19T12:41:02.260Z,64.90
2018-10-19T12:43:32.260Z,65.00
2018-10-19T12:46:35.561Z,64.60
2018-10-19T12:49:05.370Z,66.30
2018-10-19T12:51:34.936Z,66.90
2018-10-19T12:54:04.697Z,67.00
2018-10-19T12:56:33.996Z,67.00
2018-10-19T12:59:03.423Z,68.40
2018-10-19T13:01:33.243Z,68.00
2018-10-19T13:04:02.969Z,67.50
2018-10-19T13:06:32.289Z,65.60
2018-10-19T13:09:02.315Z,65.30
2018-10-19T13:11:32.444Z,64.60
2018-10-19T13:14:02.215Z,65.00
2018-10-19T13:16:32.250Z,63.10
2018-10-19T13:19:02.326Z,64.30
2018-10-19T13:21:32.262Z,64.20
2018-10-19T13:24:02.454Z,64.10
2018-10-19T13:26:32.193Z,62.50
2018-10-19T13:29:02.646Z,64.90
2018-10-19T13:31:32.350Z,64.80
2018-10-19T13:34:02.352Z,63.10
2018-10-19T13:36:32.271Z,64.60
2018-10-19T13:39:02.371Z,63.60
2018-10-19T13:41:32.329Z,65.20
2018-10-19T13:44:02.353Z,65.90
2018-10-19T13:46:32.350Z,64.80
2018-10-19T13:49:02.381Z,64.90
2018-10-19T13:51:32.433Z,64.40
2018-10-19T13:54:02.274Z,62.20
2018-10-19T13:56:32.702Z,64.70
2018-10-19T13:59:02.385Z,64.90
2018-10-19T14:01:32.432Z,63.50
2018-10-19T14:04:02.361Z,63.90
2018-10-19T14:06:32.413Z,64.10
2018-10-19T14:09:02.530Z,65.00
2018-10-19T14:11:32.330Z,65.80
2018-10-19T14:14:02.322Z,65.70
2018-10-19T14:16:32.385Z,64.40
2018-10-19T14:19:02.483Z,64.40
2018-10-19T14:21:36.573Z,64.80
2018-10-19T14:24:06.886Z,65.40
2018-10-19T14:26:36.231Z,65.00
2018-10-19T14:29:05.986Z,64.60
2018-10-19T14:31:35.237Z,64.60
2018-10-19T14:34:04.591Z,65.20
2018-10-19T14:36:33.909Z,65.60
2018-10-19T14:39:03.303Z,65.50
2018-10-19T14:41:32.534Z,65.90
2018-10-19T14:44:02.453Z,65.70
2018-10-19T14:46:32.408Z,66.00
2018-10-19T14:49:02.539Z,65.80
2018-10-19T14:51:32.469Z,67.00
2018-10-19T14:54:02.493Z,66.70
2018-10-19T14:56:32.512Z,66.70
2018-10-19T14:59:02.486Z,66.40
2018-10-19T15:01:32.465Z,67.30
2018-10-19T15:04:02.486Z,67.50
2018-10-19T15:06:32.583Z,68.30
2018-10-19T15:09:02.677Z,68.60
2018-10-19T15:11:37.089Z,68.40
2018-10-19T15:14:06.590Z,68.50
2018-10-19T15:16:35.887Z,68.60
2018-10-19T15:19:05.213Z,68.50
2018-10-19T15:21:35.455Z,69.00
2018-10-19T15:24:04.814Z,69.10
2018-10-19T15:26:34.193Z,69.50
2018-10-19T15:29:03.575Z,69.40
2018-10-19T15:31:32.793Z,69.70
2018-10-19T15:34:02.441Z,70.70
2018-10-19T15:36:32.671Z,70.50
2018-10-19T15:39:02.692Z,70.90
2018-10-19T15:41:32.621Z,70.70
2018-10-19T15:44:02.611Z,70.60
2018-10-19T15:46:32.727Z,70.90
2018-10-19T15:49:02.584Z,71.20
2018-10-19T15:51:32.653Z,71.30
2018-10-19T15:54:03.196Z,71.60
2018-10-19T15:56:32.680Z,71.30
2018-10-19T15:59:02.719Z,71.50
2018-10-19T16:01:32.537Z,71.90
2018-10-19T16:04:02.637Z,72.30
2018-10-19T16:06:32.594Z,72.70
2018-10-19T16:09:02.714Z,73.00
2018-10-19T16:11:32.643Z,73.00
2018-10-19T16:14:02.601Z,72.90
2018-10-19T16:16:32.584Z,73.50
2018-10-19T16:19:02.955Z,73.60
2018-10-19T16:21:32.858Z,73.40
2018-10-19T16:24:02.676Z,73.60
2018-10-19T16:26:32.736Z,73.70
2018-10-19T16:29:02.903Z,73.60
2018-10-19T16:31:32.792Z,73.90
2018-10-19T16:34:02.728Z,74.80
2018-10-19T16:36:32.624Z,73.90
2018-10-19T16:39:02.811Z,74.20
2018-10-19T16:41:32.722Z,74.20
2018-10-19T16:44:02.731Z,74.10
2018-10-19T16:46:32.802Z,73.90
2018-10-19T16:49:02.784Z,74.00
2018-10-19T16:51:32.708Z,74.00
2018-10-19T16:54:02.788Z,74.40
2018-10-19T16:56:32.664Z,74.60
2018-10-19T16:59:02.817Z,74.50
2018-10-19T17:01:32.673Z,74.40
2018-10-19T17:04:02.859Z,74.70
2018-10-19T17:06:34.828Z,75.20
2018-10-19T17:09:06.369Z,75.10
2018-10-19T17:11:35.556Z,75.10
2018-10-19T17:14:04.856Z,75.20
2018-10-19T17:16:34.151Z,75.20
2018-10-19T17:19:03.437Z,75.40
2018-10-19T17:21:32.796Z,75.50
2018-10-19T17:24:02.831Z,75.60
2018-10-19T17:26:32.774Z,75.60
2018-10-19T17:29:06.178Z,75.80
2018-10-19T17:31:35.594Z,75.90
2018-10-19T17:34:05.023Z,76.10
2018-10-19T17:36:34.270Z,76.00
2018-10-19T17:39:03.685Z,76.00
2018-10-19T17:41:32.945Z,76.20
2018-10-19T17:44:02.829Z,76.40
2018-10-19T17:46:32.817Z,76.30
2018-10-19T17:49:02.938Z,76.30
2018-10-19T17:51:32.857Z,76.40
2018-10-19T17:54:02.951Z,76.60
2018-10-19T17:56:32.827Z,76.70
2018-10-19T17:59:02.960Z,76.80
2018-10-19T18:01:32.889Z,76.60
2018-10-19T18:04:03.005Z,76.70
2018-10-19T18:06:32.929Z,77.10
2018-10-19T18:09:02.973Z,76.80
2018-10-19T18:11:33.046Z,77.20
2018-10-19T18:14:02.896Z,77.40
2018-10-19T18:16:32.831Z,77.70
2018-10-19T18:19:02.956Z,77.90
2018-10-19T18:21:32.942Z,77.80
2018-10-19T18:24:02.958Z,77.80
2018-10-19T18:26:33.022Z,77.80
2018-10-19T18:29:03.129Z,77.80
2018-10-19T18:31:32.997Z,77.90
2018-10-19T18:34:02.907Z,78.10
2018-10-19T18:36:33.031Z,78.20
2018-10-19T18:39:03.076Z,78.20
2018-10-19T18:41:33.212Z,78.00
2018-10-19T18:44:03.038Z,78.50
2018-10-19T18:46:33.076Z,78.20
2018-10-19T18:49:03.085Z,78.10
2018-10-19T18:51:33.108Z,78.20
2018-10-19T18:54:03.174Z,78.20
2018-10-19T18:56:33.328Z,78.50
2018-10-19T18:59:03.264Z,78.30
2018-10-19T19:01:33.115Z,78.40
2018-10-19T19:04:03.167Z,78.20
2018-10-19T19:06:33.422Z,78.30
2018-10-19T19:09:03.645Z,78.20
2018-10-19T19:11:33.206Z,78.80
2018-10-19T19:14:03.451Z,78.90
2018-10-19T19:16:33.389Z,78.90
2018-10-19T19:19:03.377Z,78.80
2018-10-19T19:21:33.194Z,78.90
2018-10-19T19:24:08.726Z,79.00
2018-10-19T19:26:38.157Z,79.00
2018-10-19T19:29:07.950Z,78.80
2018-10-19T19:31:37.344Z,78.70
2018-10-19T19:34:12.210Z,78.70
2018-10-19T19:36:48.051Z,78.60
2018-10-19T19:39:17.480Z,79.00
2018-10-19T19:42:50.563Z,79.20
2018-10-19T19:45:20.008Z,79.40
2018-10-19T19:47:54.815Z,79.20
2018-10-19T19:50:24.168Z,79.30
2018-10-19T19:52:53.544Z,79.30
2018-10-19T19:55:22.944Z,79.50
2018-10-19T19:57:52.270Z,79.30
2018-10-19T20:00:26.166Z,79.30
2018-10-19T20:02:55.509Z,79.50
2018-10-19T20:05:24.909Z,79.60
2018-10-19T20:07:54.260Z,79.50
2018-10-19T20:10:23.549Z,79.40
2018-10-19T20:12:52.856Z,79.60
2018-10-19T20:15:22.157Z,79.90
2018-10-19T20:17:51.454Z,79.40
2018-10-19T20:20:21.126Z,79.40
2018-10-19T20:22:50.526Z,79.40
2018-10-19T20:25:19.814Z,79.70
2018-10-19T20:27:49.173Z,79.80
2018-10-19T20:30:18.672Z,79.70
2018-10-19T20:32:47.941Z,79.60
2018-10-19T20:35:17.317Z,79.50
2018-10-19T20:37:46.939Z,79.30
2018-10-19T20:40:16.256Z,79.30
2018-10-19T20:42:45.552Z,79.50
2018-10-19T20:45:14.889Z,78.60
2018-10-19T20:47:44.272Z,79.50
2018-10-19T20:50:14.083Z,79.80
2018-10-19T20:52:43.378Z,80.60
2018-10-19T20:55:12.677Z,80.00
2018-10-19T20:57:42.004Z,80.00
2018-10-19T21:00:11.310Z,80.20
2018-10-19T21:02:40.684Z,80.00
2018-10-19T21:05:11.356Z,79.90
2018-10-19T21:07:40.678Z,79.90
2018-10-19T21:10:11.823Z,80.10
2018-10-19T21:12:41.138Z,80.40
2018-10-19T21:15:12.808Z,80.60
2018-10-19T21:17:43.010Z,80.70
2018-10-19T21:20:13.169Z,80.80
2018-10-19T21:22:42.390Z,80.90
2018-10-19T21:25:12.529Z,80.90
2018-10-19T21:27:41.774Z,80.90
2018-10-19T21:30:12.457Z,80.90
2018-10-19T21:32:41.933Z,80.90
2018-10-19T21:35:11.600Z,80.90
2018-10-19T21:37:40.801Z,81.00
2018-10-19T21:40:10.101Z,81.00
2018-10-19T21:42:39.463Z,81.00
2018-10-19T21:45:09.025Z,81.10
2018-10-19T21:47:42.325Z,81.10
2018-10-19T21:50:11.732Z,81.10
2018-10-19T21:52:41.168Z,81.50
2018-10-19T21:55:11.445Z,81.10
2018-10-19T21:57:40.814Z,81.30
2018-10-19T22:00:10.868Z,81.30
2018-10-19T22:02:40.182Z,81.40
2018-10-19T22:05:10.149Z,81.30
2018-10-19T22:07:39.484Z,81.20
2018-10-19T22:10:08.800Z,81.30
2018-10-19T22:12:38.139Z,81.40
2018-10-19T22:15:08.322Z,81.30
2018-10-19T22:17:37.605Z,81.30
2018-10-19T22:20:07.762Z,81.20
2018-10-19T22:22:37.135Z,81.30
2018-10-19T22:25:07.321Z,81.20
2018-10-19T22:27:36.547Z,81.20
2018-10-19T22:30:07.132Z,81.20
2018-10-19T22:32:36.517Z,81.60
2018-10-19T22:35:06.005Z,81.40
2018-10-19T22:37:35.315Z,81.30
2018-10-19T22:40:04.902Z,81.20
2018-10-19T22:42:34.251Z,81.30
2018-10-19T22:45:03.600Z,81.30
2018-10-19T22:47:33.606Z,81.00
2018-10-19T22:50:03.623Z,81.00
2018-10-19T22:52:33.502Z,81.10
2018-10-19T22:55:03.872Z,80.90
2018-10-19T22:57:33.664Z,80.90
2018-10-19T23:00:03.729Z,81.00
2018-10-19T23:02:33.596Z,81.00
2018-10-19T23:05:03.705Z,81.20
2018-10-19T23:07:33.615Z,81.00
2018-10-19T23:10:03.714Z,81.10
2018-10-19T23:12:33.669Z,81.30
2018-10-19T23:15:03.673Z,81.20
2018-10-19T23:17:33.744Z,81.30
2018-10-19T23:20:03.593Z,81.30
2018-10-19T23:22:33.624Z,81.40
2018-10-19T23:25:03.891Z,81.50
2018-10-19T23:27:33.653Z,81.40
2018-10-19T23:30:03.668Z,81.40
2018-10-19T23:32:33.911Z,81.50
2018-10-19T23:35:06.437Z,82.00
2018-10-19T23:37:35.934Z,82.10
2018-10-19T23:40:05.674Z,82.70
2018-10-19T23:42:34.942Z,82.70
2018-10-19T23:45:04.477Z,82.70
2018-10-19T23:47:33.787Z,82.60
2018-10-19T23:50:03.812Z,82.80
2018-10-19T23:52:33.773Z,82.90
2018-10-19T23:55:03.958Z,83.10
2018-10-19T23:57:33.705Z,83.20
